UPSVAC Airport Information Service

Mumbai / Santacruz

ICAO: VABB Country: India, AS
Latitude: 19.0887 Longitude: 72.8679
Latest Arrival : UPS1250 (VHHH-VABB) Latest Departure : UPS1185 (VABB-OMDB)


WX CaptureLIVE
Data provided by noaa.gov | Fetched at 14:52:03

METAR : VABB 251430Z 31006KT 3000 HZ NSC 25/18 Q1013 NOSIG

TAF : VABB 251100Z 2512/2618 34006KT 3000 HZ FU FEW100 BECMG 2518/2520 03004KT 2500 HZ BR NSC BECMG 2600/2602 00000KT 1500 HZ BR BECMG 2603/2605 05004KT 3000 HZ FU FEW100 BECMG 2606/2608 27008KT 4000 HZ FU NSC BECMG 2613/2615 34005KT 3000 HZ FEW100 BECMG 2616/2618 VRB03KT 2000 HZ NSC


Runway Data for VABB
Data provided by openaviationdata.com

Runway ID Mag Var Hdg Length Elevation Surface ILS Freq ILS Id ILS Slope
9 -1 91° 11337 ft 37 ft Asphalt 109.5 IBOM 3
14 -1 136° 9622 ft 37 ft Asphalt 110.1 IBBY 3
27 -1 271° 11337 ft 37 ft Asphalt 110.3 ISCZ 3
32 -1 316° 9622 ft 37 ft Asphalt -- -- --

Mumbai / Santacruz, India, AS
Use only for reference purposes



Not for navigational purposes.